Time;durP1;ratioP1;P1;durP2;ratioP2;P2;SDS_P1;SDS_P2;PMS_P1;PMS_P2;Temp;Humidity;BMP_temperature;BMP_pressure;BME280_temperature;BME280_humidity;BME280_pressure;Samples;Min_cycle;Max_cycle;Signal;HPM_P1;HPM_P2
2022/04/05 00:01:17;;;;;;;7.75;2.20;;;;;;;;;;5016177;28;20053;-78
2022/04/05 00:04:01;;;;;;;9.88;2.28;;;;;;;;;;4989196;28;20050;-79
2022/04/05 00:06:46;;;;;;;7.72;1.98;;;;;;;;;;4990458;28;20440;-78
2022/04/05 00:09:30;;;;;;;7.75;1.83;;;;;;;;;;4993399;28;20406;-79
2022/04/05 00:12:15;;;;;;;5.65;1.90;;;;;;;;;;4992992;28;20060;-78
2022/04/05 00:14:59;;;;;;;5.53;1.67;;;;;;;;;;4978534;28;20037;-80
2022/04/05 00:17:44;;;;;;;9.00;1.70;;;;;;;;;;4993364;28;20049;-78
2022/04/05 00:20:29;;;;;;;7.05;1.83;;;;;;;;;;4993400;28;20047;-79
2022/04/05 00:23:15;;;;;;;8.15;2.13;;;;;;;;;;4992542;28;20049;-79
2022/04/05 00:25:59;;;;;;;7.10;1.98;;;;;;;;;;4993448;28;20398;-78
2022/04/05 00:28:44;;;;;;;7.18;1.77;;;;;;;;;;4993160;28;20140;-78
2022/04/05 00:31:29;;;;;;;7.57;1.70;;;;;;;;;;4993396;28;20040;-79
2022/04/05 00:34:13;;;;;;;10.52;1.80;;;;;;;;;;4992727;28;20072;-78
2022/04/05 00:36:58;;;;;;;13.50;2.42;;;;;;;;;;4992980;28;20511;-79
2022/04/05 00:39:42;;;;;;;8.77;2.03;;;;;;;;;;4993178;28;20168;-79
2022/04/05 00:42:27;;;;;;;7.38;1.80;;;;;;;;;;5012095;28;20065;-79
2022/04/05 00:45:15;;;;;;;6.30;1.75;;;6.70;99.90;;;;;;5011986;28;20038;-79
2022/04/05 00:48:00;;;;;;;8.38;2.83;;;;;;;;;;5012599;28;20087;-79
2022/04/05 00:50:44;;;;;;;6.70;1.63;;;;;;;;;;5025415;28;20106;-79
2022/04/05 00:53:29;;;;;;;7.22;1.70;;;;;;;;;;4997404;28;20159;-78
2022/04/05 00:56:15;;;;;;;10.15;1.70;;;6.70;99.90;;;;;;5007955;28;20049;-78
2022/04/05 00:59:00;;;;;;;7.15;1.63;;;6.70;99.90;;;;;;5012144;28;20056;-78
2022/04/05 01:01:46;;;;;;;10.15;1.55;;;6.70;99.90;;;;;;5012323;28;20033;-79
2022/04/05 01:04:31;;;;;;;13.77;1.67;;;;;;;;;;4997492;28;20128;-79
2022/04/05 01:07:17;;;;;;;10.68;1.85;;;6.70;99.90;;;;;;5011639;28;20056;-78
2022/04/05 01:10:05;;;;;;;7.03;1.58;;;6.60;99.90;;;;;;5012226;28;20512;-79
2022/04/05 01:12:50;;;;;;;7.38;1.20;;;;;;;;;;5012057;28;20044;-79
2022/04/05 01:15:34;;;;;;;11.40;1.80;;;;;;;;;;5012200;28;20527;-79
2022/04/05 01:18:19;;;;;;;6.97;1.52;;;;;;;;;;4995855;28;20041;-79
2022/04/05 01:21:04;;;;;;;10.02;2.17;;;;;;;;;;4992501;28;20057;-78
2022/04/05 01:24:06;;;;;;;11.32;3.17;;;6.50;99.90;;;;;;4992395;28;20041;-79
2022/04/05 01:26:54;;;;;;;9.35;1.60;;;6.60;99.90;;;;;;4992573;28;20457;-78
2022/04/05 01:29:38;;;;;;;9.02;1.67;;;;;;;;;;4977791;28;20127;-79
2022/04/05 01:32:23;;;;;;;4.45;1.42;;;;;;;;;;5024342;28;20505;-79
2022/04/05 01:35:08;;;;;;;7.85;1.77;;;;;;;;;;5024749;28;20045;-79
2022/04/05 01:37:53;;;;;;;7.25;1.80;;;;;;;;;;5011535;28;20072;-79
2022/04/05 01:40:38;;;;;;;10.80;1.73;;;;;;;;;;5011537;28;20509;-79
2022/04/05 01:43:22;;;;;;;6.22;1.88;;;;;;;;;;5011206;28;20072;-79
2022/04/05 01:46:07;;;;;;;7.07;2.05;;;;;;;;;;5011661;28;20044;-79
2022/04/05 01:48:52;;;;;;;6.05;1.60;;;;;;;;;;5011718;28;20091;-78
2022/04/05 01:51:37;;;;;;;9.88;1.77;;;6.60;99.90;;;;;;5011294;28;20413;-79
2022/04/05 01:54:22;;;;;;;7.35;2.38;;;;;;;;;;5010923;28;20037;-79
2022/04/05 01:57:07;;;;;;;7.93;1.63;;;;;;;;;;5011566;28;20414;-79
2022/04/05 01:59:52;;;;;;;7.13;1.80;;;;;;;;;;5024399;28;20087;-79
2022/04/05 02:02:36;;;;;;;5.60;1.63;;;;;;;;;;5010839;28;20128;-79
2022/04/05 02:05:21;;;;;;;7.13;2.45;;;;;;;;;;5010830;28;20041;-79
2022/04/05 02:08:06;;;;;;;8.73;1.80;;;6.40;99.90;;;;;;5011172;28;20121;-79
2022/04/05 02:10:50;;;;;;;8.77;2.10;;;;;;;;;;5010863;28;20049;-78
2022/04/05 02:13:35;;;;;;;9.38;1.85;;;;;;;;;;4982299;28;20061;-79
2022/04/05 02:16:19;;;;;;;7.13;1.67;;;;;;;;;;5010627;28;20108;-79
2022/04/05 02:19:04;;;;;;;8.35;2.58;;;;;;;;;;4996525;28;20561;-78
2022/04/05 02:21:49;;;;;;;15.90;2.05;;;;;;;;;;5011297;28;20048;-79
2022/04/05 02:24:34;;;;;;;8.35;2.13;;;;;;;;;;5009947;28;20125;-79
2022/04/05 02:27:19;;;;;;;14.45;2.20;;;;;;;;;;4995698;28;20049;-80
2022/04/05 02:30:03;;;;;;;10.10;2.75;;;6.70;99.90;;;;;;5010517;28;20389;-78
2022/04/05 02:32:48;;;;;;;13.60;2.55;;;;;;;;;;5010839;28;20048;-79
2022/04/05 02:35:32;;;;;;;7.85;2.60;;;;;;;;;;5010359;28;20044;-78
2022/04/05 02:38:17;;;;;;;13.10;3.47;;;;;;;;;;5010827;28;20049;-80
2022/04/05 02:41:04;;;;;;;9.07;2.30;;;;;;;;;;5010726;28;20057;-79
2022/04/05 02:43:48;;;;;;;10.65;2.10;;;;;;;;;;5010231;28;20083;-79
2022/04/05 02:46:33;;;;;;;12.18;2.92;;;;;;;;;;5010214;28;20048;-79
2022/04/05 02:49:18;;;;;;;9.07;2.75;;;;;;;;;;5010679;28;20041;-79
2022/04/05 02:52:03;;;;;;;8.02;2.70;;;6.60;99.90;;;;;;5010332;28;20095;-79
2022/04/05 02:54:47;;;;;;;11.07;2.90;;;;;;;;;;5010463;28;20538;-79
2022/04/05 02:57:36;;;;;;;15.18;4.05;;;6.60;99.90;;;;;;5010053;28;20171;-78
2022/04/05 03:00:21;;;;;;;9.82;2.60;;;;;;;;;;5023395;28;20405;-81
2022/04/05 03:03:06;;;;;;;12.82;2.90;;;;;;;;;;5010140;28;20128;-79
2022/04/05 03:05:50;;;;;;;8.93;2.97;;;;;;;;;;4991093;28;20041;-79
2022/04/05 03:08:35;;;;;;;14.07;2.92;;;;;;;;;;4990291;28;20091;-79
2022/04/05 03:11:21;;;;;;;12.55;2.88;;;;;;;;;;4990951;28;20073;-79
2022/04/05 03:14:06;;;;;;;9.45;2.60;;;;;;;;;;4990782;28;20045;-79
2022/04/05 03:16:50;;;;;;;14.25;3.47;;;;;;;;;;4975986;28;20037;-79
2022/04/05 03:19:35;;;;;;;10.35;3.25;;;;;;;;;;4990057;28;20401;-79
2022/04/05 03:22:20;;;;;;;16.95;3.97;;;;;;;;;;4976152;28;20470;-79
2022/04/05 03:25:05;;;;;;;15.88;3.53;;;7.20;99.90;;;;;;4999477;28;20060;-79
2022/04/05 03:27:49;;;;;;;13.10;3.72;;;;;;;;;;5010148;28;20045;-79
2022/04/05 03:30:34;;;;;;;8.82;3.60;;;;;;;;;;5009525;28;20405;-79
2022/04/05 03:33:19;;;;;;;9.85;2.97;;;;;;;;;;4995351;28;20456;-78
2022/04/05 03:36:05;;;;;;;13.00;2.55;;;6.50;99.90;;;;;;5010015;28;20424;-78
2022/04/05 03:38:49;;;;;;;11.98;3.22;;;;;;;;;;5009257;28;20041;-79
2022/04/05 03:41:33;;;;;;;10.52;2.67;;;;;;;;;;4980039;28;20165;-79
2022/04/05 03:44:18;;;;;;;9.32;2.20;;;;;;;;;;5009676;28;20080;-79
2022/04/05 03:47:03;;;;;;;11.07;2.28;;;;;;;;;;5022835;28;20415;-79
2022/04/05 03:49:47;;;;;;;11.45;3.05;;;;;;;;;;5009218;28;20044;-79
2022/04/05 03:52:32;;;;;;;15.35;2.97;;;;;;;;;;5022197;28;20044;-79
2022/04/05 03:55:16;;;;;;;16.08;4.70;;;;;;;;;;5009714;28;20436;-79
2022/04/05 03:58:01;;;;;;;11.07;3.00;;;;;;;;;;5009682;28;20083;-79
2022/04/05 04:00:45;;;;;;;15.32;2.95;;;;;;;;;;5008859;28;20052;-79
2022/04/05 04:03:30;;;;;;;12.02;2.75;;;;;;;;;;5009155;28;20049;-81
2022/04/05 04:06:14;;;;;;;15.30;3.05;;;;;;;;;;5022321;28;20071;-78
2022/04/05 04:08:59;;;;;;;12.88;3.10;;;;;;;;;;5022483;28;20428;-79
2022/04/05 04:11:45;;;;;;;20.23;4.10;;;;;;;;;;5008980;28;20036;-79
2022/04/05 04:14:31;;;;;;;15.25;3.13;;;;;;;;;;5009362;28;20063;-82
2022/04/05 04:17:16;;;;;;;16.65;3.22;;;;;;;;;;5009466;28;20064;-78
2022/04/05 04:20:01;;;;;;;17.38;3.05;;;;;;;;;;5022278;28;20057;-79
2022/04/05 04:22:46;;;;;;;14.70;4.20;;;;;;;;;;5008625;28;20052;-79
2022/04/05 04:25:31;;;;;;;15.23;3.15;;;;;;;;;;5008564;28;20033;-81
2022/04/05 04:28:16;;;;;;;21.10;3.03;;;;;;;;;;5015079;28;20064;-80
2022/04/05 04:31:00;;;;;;;16.77;3.30;;;;;;;;;;5002024;28;20575;-80
2022/04/05 04:33:45;;;;;;;15.25;3.10;;;;;;;;;;5001151;28;20129;-82
2022/04/05 04:36:29;;;;;;;11.13;2.75;;;;;;;;;;5001342;28;20037;-81
2022/04/05 04:39:17;;;;;;;14.35;2.67;;;;;;;;;;5000689;28;20141;-81
2022/04/05 04:42:01;;;;;;;13.88;3.00;;;;;;;;;;5001185;28;20130;-80
2022/04/05 04:44:46;;;;;;;14.85;2.80;;;;;;;;;;5008816;28;20219;-81
2022/04/05 04:47:30;;;;;;;14.07;2.28;;;;;;;;;;4996938;28;20045;-80
2022/04/05 04:50:15;;;;;;;15.18;4.65;;;;;;;;;;5000878;28;20048;-82
2022/04/05 04:52:59;;;;;;;17.00;3.75;;;;;;;;;;5001379;28;20061;-80
2022/04/05 04:55:44;;;;;;;13.68;2.85;;;;;;;;;;5003643;28;20049;-80
2022/04/05 04:58:29;;;;;;;14.73;3.20;;;;;;;;;;5004323;28;20037;-80
2022/04/05 05:01:13;;;;;;;12.50;3.30;;;;;;;;;;5003933;28;20048;-80
2022/04/05 05:03:58;;;;;;;11.00;2.78;;;;;;;;;;5003552;28;20049;-80
2022/04/05 05:06:42;;;;;;;9.73;2.83;;;;;;;;;;5003797;28;20076;-80
2022/04/05 05:09:27;;;;;;;17.50;3.28;;;;;;;;;;5003949;28;20041;-80
2022/04/05 05:12:12;;;;;;;13.13;2.95;;;;;;;;;;5004257;28;20090;-81
2022/04/05 05:14:56;;;;;;;10.68;2.90;;;;;;;;;;5003335;28;20049;-80
2022/04/05 05:17:41;;;;;;;11.23;2.90;;;;;;;;;;5003272;28;20069;-81
2022/04/05 05:20:26;;;;;;;14.00;3.20;;;;;;;;;;5004472;28;20048;-81
2022/04/05 05:23:11;;;;;;;13.48;2.90;;;;;;;;;;5004325;28;20049;-81
2022/04/05 05:25:55;;;;;;;10.38;3.28;;;;;;;;;;5004125;28;20087;-81
2022/04/05 05:28:40;;;;;;;18.88;3.95;;;;;;;;;;5010709;28;20040;-80
2022/04/05 05:31:24;;;;;;;9.90;2.97;;;;;;;;;;5011753;28;20500;-79
2022/04/05 05:34:09;;;;;;;14.25;4.07;;;;;;;;;;4997132;28;20147;-80
2022/04/05 05:36:53;;;;;;;10.50;3.45;;;;;;;;;;4996446;28;20041;-80
2022/04/05 05:39:38;;;;;;;18.73;4.60;;;;;;;;;;5011475;28;20527;-82
2022/04/05 05:42:22;;;;;;;12.43;4.70;;;;;;;;;;5012263;28;20069;-80
2022/04/05 05:45:07;;;;;;;12.98;4.43;;;6.50;99.90;;;;;;5011637;28;20045;-78
2022/04/05 05:47:52;;;;;;;8.15;3.22;;;;;;;;;;4996425;28;20046;-80
2022/04/05 05:50:37;;;;;;;12.73;3.08;;;;;;;;;;5011694;28;20480;-80
2022/04/05 05:53:21;;;;;;;11.20;3.17;;;;;;;;;;5011590;28;20045;-80
2022/04/05 05:56:06;;;;;;;9.65;3.20;;;;;;;;;;5011487;28;20084;-80
2022/04/05 05:58:51;;;;;;;12.90;3.08;;;;;;;;;;4996228;28;20516;-81
2022/04/05 06:01:36;;;;;;;13.73;3.72;;;;;;;;;;5011582;28;20045;-80
2022/04/05 06:04:20;;;;;;;10.65;3.38;;;;;;;;;;5010973;28;20078;-81
2022/04/05 06:07:05;;;;;;;9.15;2.80;;;;;;;;;;4996254;28;20053;-80
2022/04/05 06:09:49;;;;;;;11.43;2.72;;;;;;;;;;5010714;28;20482;-83
2022/04/05 06:12:40;;;;;;;13.68;2.80;;;6.80;99.90;;;;;;5010325;28;20453;-80
2022/04/05 06:15:26;;;;;;;10.38;2.72;;;6.80;99.90;;;;;;4995853;28;20401;-80
2022/04/05 06:18:11;;;;;;;10.02;2.47;;;;;;;;;;5011226;28;20075;-80
2022/04/05 06:20:55;;;;;;;12.88;2.63;;;;;;;;;;4995704;28;20053;-80
2022/04/05 06:23:40;;;;;;;10.45;2.75;;;;;;;;;;5011169;28;20045;-82
2022/04/05 06:26:25;;;;;;;7.82;2.53;;;;;;;;;;5011050;28;20036;-80
2022/04/05 06:29:09;;;;;;;9.15;2.80;;;;;;;;;;5010912;28;20044;-80
2022/04/05 06:31:54;;;;;;;8.48;2.67;;;;;;;;;;5010448;28;20102;-79
2022/04/05 06:34:38;;;;;;;11.43;3.55;;;;;;;;;;5011058;28;20037;-83
2022/04/05 06:37:23;;;;;;;15.40;3.58;;;;;;;;;;5010129;28;20067;-80
2022/04/05 06:40:07;;;;;;;6.95;2.53;;;6.80;99.90;;;;;;5009381;28;20563;-79
2022/04/05 06:42:52;;;;;;;11.68;2.92;;;;;;;;;;5009683;28;20040;-80
2022/04/05 06:45:37;;;;;;;10.13;3.00;;;;;;;;;;5004051;28;20398;-80
2022/04/05 06:48:22;;;;;;;12.82;3.22;;;;;;;;;;4990847;28;20436;-80
2022/04/05 06:51:07;;;;;;;9.52;2.35;;;;;;;;;;4987000;28;20037;-80
2022/04/05 06:53:52;;;;;;;13.98;2.67;;;7.20;99.90;;;;;;4994918;28;20084;-81
2022/04/05 06:57:49;;;;;;;5.65;2.08;;;;;;;;;;5129493;27;20322;-77
2022/04/05 07:00:34;;;;;;;9.20;3.33;;;;;;;;;;5129862;28;20042;-86
2022/04/05 07:03:18;;;;;;;8.10;2.13;;;;;;;;;;5115267;28;20043;-82
2022/04/05 07:06:03;;;;;;;6.53;2.30;;;;;;;;;;5129101;28;20096;-82
2022/04/05 07:08:49;;;;;;;12.82;2.45;;;;;;;;;;5130430;28;20046;-84
2022/04/05 07:11:34;;;;;;;7.85;2.40;;;;;;;;;;5129730;28;20395;-83
2022/04/05 07:14:19;;;;;;;7.85;3.13;;;;;;;;;;5129707;28;20045;-81
2022/04/05 07:17:03;;;;;;;10.38;2.60;;;7.60;99.90;;;;;;5129772;28;20047;-82
2022/04/05 07:19:48;;;;;;;6.85;2.10;;;;;;;;;;5129360;28;20596;-79
2022/04/05 07:22:33;;;;;;;8.45;2.70;;;;;;;;;;5129455;28;20034;-78
2022/04/05 07:25:19;;;;;;;8.10;2.40;;;;;;;;;;5129307;28;20046;-78
2022/04/05 07:28:04;;;;;;;8.55;2.08;;;7.60;99.90;;;;;;5129634;28;20038;-79
2022/04/05 07:30:49;;;;;;;8.57;2.15;;;;;;;;;;5130252;28;20494;-78
2022/04/05 07:33:33;;;;;;;9.25;2.50;;;;;;;;;;5129151;28;20402;-78
2022/04/05 07:36:17;;;;;;;8.73;2.17;;;;;;;;;;5129756;28;20441;-78
2022/04/05 07:39:02;;;;;;;6.70;2.28;;;;;;;;;;5129412;28;20089;-78
2022/04/05 07:41:46;;;;;;;5.28;2.35;;;;;;;;;;5128951;28;20444;-80
2022/04/05 07:44:31;;;;;;;10.00;2.25;;;;;;;;;;5129062;28;20046;-78
2022/04/05 07:47:15;;;;;;;5.50;1.92;;;;;;;;;;5129239;28;20042;-78
2022/04/05 07:50:00;;;;;;;7.50;2.10;;;;;;;;;;5128203;28;20514;-78
2022/04/05 07:52:45;;;;;;;5.30;2.10;;;;;;;;;;5129885;28;20043;-78
2022/04/05 07:55:29;;;;;;;5.85;2.20;;;;;;;;;;5129414;28;20042;-78
2022/04/05 07:58:14;;;;;;;6.65;2.10;;;;;;;;;;5129049;28;20194;-78
2022/04/05 08:00:58;;;;;;;9.20;2.60;;;;;;;;;;5128981;28;20533;-79
2022/04/05 08:03:43;;;;;;;8.18;2.50;;;;;;;;;;5129483;28;20105;-78
2022/04/05 08:06:28;;;;;;;7.32;2.35;;;;;;;;;;5128468;28;20058;-78
2022/04/05 08:09:13;;;;;;;5.95;1.80;;;;;;;;;;5114892;28;20084;-78
2022/04/05 08:11:58;;;;;;;6.60;2.10;;;;;;;;;;5107514;28;20067;-80
2022/04/05 08:14:42;;;;;;;6.72;1.77;;;;;;;;;;5111111;28;20085;-78
2022/04/05 08:17:27;;;;;;;7.90;1.75;;;;;;;;;;5115095;28;20038;-78
2022/04/05 08:20:12;;;;;;;6.57;1.90;;;7.80;99.90;;;;;;5098922;28;20088;-78
2022/04/05 08:22:56;;;;;;;9.02;2.30;;;;;;;;;;5109004;28;20108;-80
2022/04/05 08:25:41;;;;;;;6.80;2.05;;;;;;;;;;5109033;28;20042;-78
2022/04/05 08:28:26;;;;;;;4.28;1.63;;;;;;;;;;5115342;28;20064;-79
2022/04/05 08:31:10;;;;;;;7.72;1.90;;;;;;;;;;5114686;28;20184;-79
2022/04/05 08:33:55;;;;;;;9.20;2.70;;;;;;;;;;5099926;28;20395;-79
2022/04/05 08:36:39;;;;;;;7.78;2.50;;;;;;;;;;5115114;28;20131;-79
2022/04/05 08:39:23;;;;;;;5.88;1.70;;;;;;;;;;5115022;28;20042;-78
2022/04/05 08:42:08;;;;;;;9.70;1.80;;;;;;;;;;5113596;28;20038;-79
2022/04/05 08:44:54;;;;;;;8.75;2.15;;;8.10;99.90;;;;;;5115124;28;20085;-79
2022/04/05 08:47:43;;;;;;;8.48;2.00;;;8.10;99.90;;;;;;5114974;28;20043;-79
2022/04/05 08:50:31;;;;;;;6.10;1.80;;;8.20;99.90;;;;;;5113716;28;20391;-79
2022/04/05 08:53:16;;;;;;;7.32;2.45;;;8.30;99.90;;;;;;5113620;28;20035;-79
2022/04/05 08:56:01;;;;;;;8.55;2.22;;;8.50;99.90;;;;;;5112676;28;20058;-80
2022/04/05 08:58:46;;;;;;;8.90;1.98;;;;;;;;;;5113457;28;20071;-79
2022/04/05 09:01:32;;;;;;;5.30;1.60;;;;;;;;;;5113997;28;21418;-79
2022/04/05 09:04:17;;;;;;;4.40;2.47;;;;;;;;;;5108547;28;20092;-86
2022/04/05 09:07:24;;;;;;;5.60;1.63;;;8.90;99.90;;;;;;5113632;28;20169;-83
2022/04/05 09:10:13;;;;;;;5.72;1.70;;;9.70;99.90;;;;;;5114053;28;20053;-82
2022/04/05 09:12:57;;;;;;;4.88;1.48;;;;;;;;;;5114548;28;20066;-84
2022/04/05 09:15:44;;;;;;;4.18;1.30;;;8.80;99.90;;;;;;5113498;28;20035;-83
2022/04/05 09:18:29;;;;;;;5.72;2.40;;;;;;;;;;5141824;27;20391;-83
2022/04/05 09:21:14;;;;;;;3.40;1.45;;;;;;;;;;5109839;28;20063;-84
2022/04/05 09:24:06;;;;;;;5.25;1.88;;;8.70;99.90;;;;;;5113435;28;20525;-82
2022/04/05 09:26:51;;;;;;;5.32;1.63;;;;;;;;;;5111873;28;20100;-79
2022/04/05 09:29:43;;;;;;;6.20;1.90;;;8.70;99.90;;;;;;5095428;28;20437;-79
2022/04/05 09:32:37;;;;;;;10.10;1.75;;;9.10;99.90;;;;;;5112669;28;20042;-79
2022/04/05 09:35:29;;;;;;;3.80;1.58;;;8.90;99.90;;;;;;5107357;28;20047;-79
2022/04/05 09:38:16;;;;;;;5.72;1.48;;;9.00;99.90;;;;;;5112924;28;20043;-79
2022/04/05 09:41:19;;;;;;;5.55;1.42;;;8.90;99.90;;;;;;5114032;28;20038;-79
2022/04/05 09:44:04;;;;;;;8.23;1.95;;;;;;;;;;5112879;28;20070;-79
2022/04/05 09:46:52;;;;;;;3.67;1.50;;;9.00;99.90;;;;;;5113794;28;20086;-79
2022/04/05 09:49:41;;;;;;;3.92;1.60;;;9.00;99.90;;;;;;5113852;28;20066;-79
2022/04/05 09:52:33;;;;;;;5.28;1.75;;;8.80;99.90;;;;;;5113120;28;20039;-79
2022/04/05 09:55:18;;;;;;;22.63;5.15;;;8.70;99.90;;;;;;5113143;28;20495;-79
2022/04/05 09:58:11;;;;;;;4.25;1.90;;;8.90;99.90;;;;;;5113538;28;20051;-79
2022/04/05 10:01:08;;;;;;;3.25;1.70;;;8.90;99.90;;;;;;5113659;28;20119;-79
2022/04/05 10:04:08;;;;;;;3.50;1.50;;;8.70;99.90;;;;;;5112549;28;20532;-79
2022/04/05 10:06:53;;;;;;;5.55;2.05;;;;;;;;;;5113473;28;20039;-80
2022/04/05 10:09:38;;;;;;;5.30;1.77;;;;;;;;;;5113438;28;20449;-79
2022/04/05 10:12:22;;;;;;;2.80;1.60;;;;;;;;;;5112822;28;20038;-79
2022/04/05 10:15:07;;;;;;;19.30;2.92;;;8.60;99.90;;;;;;5113035;28;20042;-79
2022/04/05 10:17:57;;;;;;;4.10;1.65;;;8.80;99.90;;;;;;5113266;28;20042;-80
2022/04/05 10:20:42;;;;;;;7.20;2.00;;;;;;;;;;5113311;28;20560;-79
2022/04/05 10:23:27;;;;;;;4.00;1.40;;;8.80;99.90;;;;;;5111601;28;20065;-80
2022/04/05 10:26:16;;;;;;;2.95;1.42;;;;;;;;;;5112342;28;20047;-81
2022/04/05 10:29:15;;;;;;;3.53;1.40;;;9.00;99.90;;;;;;5111115;28;20503;-80
2022/04/05 10:32:22;;;;;;;2.35;1.63;;;9.10;99.90;;;;;;5108298;28;20039;-81
2022/04/05 10:35:08;;;;;;;4.07;1.52;;;9.10;99.90;;;;;;5112584;28;20123;-79
2022/04/05 10:38:10;;;;;;;5.43;1.80;;;9.10;99.90;;;;;;5111978;28;20407;-79
2022/04/05 10:41:16;;;;;;;3.03;1.60;;;9.30;99.90;;;;;;5111906;28;20052;-79
2022/04/05 10:44:16;;;;;;;2.95;1.65;;;9.20;99.90;;;;;;5112879;28;20502;-79
2022/04/05 10:47:03;;;;;;;4.07;1.83;;;9.30;99.90;;;;;;5112977;28;20046;-79
2022/04/05 10:49:49;;;;;;;3.30;1.58;;;9.50;99.90;;;;;;5112933;28;20446;-79
2022/04/05 10:52:35;;;;;;;5.32;1.63;;;;;;;;;;5107440;28;20157;-79
2022/04/05 10:55:20;;;;;;;4.13;1.40;;;;;;;;;;5111042;28;20498;-79
2022/04/05 10:58:09;;;;;;;5.03;1.77;;;9.60;99.90;;;;;;5111730;28;20050;-79
2022/04/05 11:01:34;;;;;;;2.20;1.30;;;9.90;99.90;;;;;;5112747;28;20043;-79
2022/04/05 11:04:32;;;;;;;2.58;1.20;;;10.00;99.90;;;;;;5111670;28;20046;-80
2022/04/05 11:07:17;;;;;;;2.15;1.23;;;;;;;;;;5106368;28;20442;-82
2022/04/05 11:10:02;;;;;;;2.25;1.23;;;;;;;;;;5096595;28;20506;-79
2022/04/05 11:12:46;;;;;;;1.73;1.20;;;;;;;;;;5112320;28;20091;-79
2022/04/05 11:15:40;;;;;;;1.83;1.10;;;10.10;99.90;;;;;;5110606;28;20514;-80
2022/04/05 11:18:26;;;;;;;;;;;10.10;99.90;;;;;;5090310;28;20685;-81
2022/04/05 11:21:11;;;;;;;2.25;1.40;;;;;;;;;;5109321;28;20378;-79
2022/04/05 11:23:57;;;;;;;2.40;1.27;;;;;;;;;;5112429;28;20066;-79
2022/04/05 11:26:42;;;;;;;2.55;1.52;;;;;;;;;;5111752;28;20062;-79
2022/04/05 11:29:26;;;;;;;2.65;1.50;;;;;;;;;;5110866;28;20120;-79
2022/04/05 11:32:11;;;;;;;2.42;1.50;;;;;;;;;;5095419;28;20074;-79
2022/04/05 11:34:55;;;;;;;2.50;1.70;;;;;;;;;;5091048;28;20043;-80
2022/04/05 11:37:40;;;;;;;5.00;1.83;;;;;;;;;;5091382;28;20503;-78
2022/04/05 11:40:24;;;;;;;2.30;1.70;;;;;;;;;;5091418;28;20075;-79
2022/04/05 11:43:30;;;;;;;3.13;1.90;;;10.50;99.90;;;;;;5092449;28;20093;-79
2022/04/05 11:46:29;;;;;;;2.47;1.60;;;10.50;99.90;;;;;;5095493;28;20047;-79
2022/04/05 11:49:14;;;;;;;3.53;1.80;;;;;;;;;;5095766;28;20055;-79
2022/04/05 11:51:59;;;;;;;3.13;1.90;;;;;;;;;;5095824;28;20534;-79
2022/04/05 11:57:47;;;;;;;3.20;1.80;;;;;;;;;;5096471;28;20063;-86
2022/04/05 12:00:33;;;;;;;2.58;1.73;;;;;;;;;;5074064;28;20262;-84
2022/04/05 12:03:17;;;;;;;2.90;1.80;;;;;;;;;;5075250;28;20035;-85
2022/04/05 12:06:02;;;;;;;3.42;1.80;;;;;;;;;;5075492;28;20097;-84
2022/04/05 12:08:48;;;;;;;2.83;1.80;;;10.50;99.90;;;;;;5074646;28;20170;-84
2022/04/05 12:11:35;;;;;;;3.03;2.00;;;10.50;99.90;;;;;;5074521;28;20047;-83
2022/04/05 12:14:22;;;;;;;3.03;2.10;;;10.60;99.90;;;;;;5087518;28;20092;-86
2022/04/05 12:17:06;;;;;;;2.63;1.90;;;;;;;;;;5109464;28;20034;-85
2022/04/05 12:19:52;;;;;;;3.42;2.47;;;10.80;99.90;;;;;;5115086;28;20077;-83
2022/04/05 12:22:37;;;;;;;3.30;2.20;;;;;;;;;;5114886;28;20043;-80
2022/04/05 12:25:22;;;;;;;4.20;2.25;;;;;;;;;;5114400;28;20555;-79
2022/04/05 12:28:07;;;;;;;16.83;3.33;;;;;;;;;;5095151;28;20116;-80
2022/04/05 12:30:51;;;;;;;11.50;3.38;;;;;;;;;;5094523;28;20514;-81
2022/04/05 12:33:36;;;;;;;4.05;2.78;;;;;;;;;;5079065;28;20523;-80
2022/04/05 12:36:22;;;;;;;4.05;3.00;;;10.50;99.90;;;;;;5094695;28;20568;-80
2022/04/05 12:39:17;;;;;;;4.03;2.95;;;10.60;99.90;;;;;;5094776;28;20109;-80
2022/04/05 12:42:05;;;;;;;6.40;3.40;;;10.60;99.90;;;;;;5121032;27;20039;-80
2022/04/05 12:44:57;;;;;;;4.85;3.28;;;11.00;99.90;;;;;;5094082;28;20186;-79
2022/04/05 12:47:48;;;;;;;4.57;3.40;;;10.70;99.90;;;;;;5094046;28;20400;-79
2022/04/05 12:50:43;;;;;;;5.18;3.40;;;11.00;99.90;;;;;;5093163;28;20070;-80
2022/04/05 12:53:33;;;;;;;4.80;3.53;;;11.10;99.90;;;;;;5094187;28;20035;-79
2022/04/05 12:56:18;;;;;;;7.72;3.80;;;;;;;;;;5094385;28;20059;-79
2022/04/05 12:59:07;;;;;;;8.25;3.95;;;10.80;99.90;;;;;;5093464;28;20035;-79
2022/04/05 13:01:56;;;;;;;9.55;4.55;;;10.80;99.90;;;;;;5078755;28;20043;-79
2022/04/05 13:04:40;;;;;;;7.13;3.92;;;11.00;99.90;;;;;;5093745;28;20092;-80
2022/04/05 13:07:25;;;;;;;8.85;4.13;;;;;;;;;;5078897;28;20079;-79
2022/04/05 13:10:11;;;;;;;8.88;4.68;;;10.80;99.90;;;;;;5094014;28;20086;-79
2022/04/05 13:12:56;;;;;;;9.20;5.00;;;;;;;;;;5106976;28;20089;-80
2022/04/05 13:15:41;;;;;;;14.27;5.45;;;10.50;99.90;;;;;;5092402;28;20043;-80
2022/04/05 13:18:37;;;;;;;18.65;6.30;;;10.80;99.90;;;;;;5094147;28;20043;-79
2022/04/05 13:21:22;;;;;;;7.68;4.50;;;;;;;;;;5093537;28;20101;-79
2022/04/05 13:24:08;;;;;;;8.75;4.60;;;10.30;99.90;;;;;;5093898;28;20035;-79
2022/04/05 13:26:54;;;;;;;7.60;4.53;;;10.20;99.90;;;;;;5111415;28;20065;-80
2022/04/05 13:29:45;;;;;;;8.63;4.93;;;10.20;99.90;;;;;;5109191;28;20030;-79
2022/04/05 13:32:30;;;;;;;12.43;5.07;;;;;;;;;;5113751;28;20038;-79
2022/04/05 13:35:14;;;;;;;12.40;5.18;;;;;;;;;;5113086;28;20043;-79
2022/04/05 13:37:58;;;;;;;13.43;5.75;;;;;;;;;;5093541;28;20046;-80
2022/04/05 13:40:43;;;;;;;12.13;5.72;;;;;;;;;;5091936;28;20511;-80
2022/04/05 13:43:28;;;;;;;12.52;5.85;;;;;;;;;;5093647;28;20134;-79
2022/04/05 13:46:13;;;;;;;15.50;6.20;;;;;;;;;;5093490;28;20495;-79
2022/04/05 13:48:58;;;;;;;15.73;6.53;;;10.00;99.90;;;;;;5092554;28;20243;-80
2022/04/05 13:51:45;;;;;;;15.80;7.00;;;10.00;99.90;;;;;;5091862;28;20089;-79
2022/04/05 13:54:30;;;;;;;16.55;6.97;;;;;;;;;;5093528;28;20093;-79
2022/04/05 13:57:17;;;;;;;20.17;7.35;;;9.70;99.90;;;;;;5093233;28;20055;-79
2022/04/05 14:00:06;;;;;;;18.17;7.82;;;10.00;99.90;;;;;;5092692;28;20499;-80
2022/04/05 14:02:54;;;;;;;14.88;7.72;;;;;;;;;;5090742;28;20556;-82
2022/04/05 14:05:38;;;;;;;19.42;7.22;;;;;;;;;;5111435;28;20088;-83
2022/04/05 14:08:23;;;;;;;19.38;7.55;;;;;;;;;;5113450;28;20093;-83
2022/04/05 14:11:07;;;;;;;18.73;8.43;;;10.10;99.90;;;;;;5071721;28;20039;-83
2022/04/05 14:13:52;;;;;;;17.70;8.18;;;;;;;;;;5117346;27;20043;-84
2022/04/05 14:16:37;;;;;;;17.35;8.18;;;;;;;;;;5106617;28;20487;-85
2022/04/05 14:19:22;;;;;;;21.13;9.15;;;;;;;;;;5112927;28;20065;-82
2022/04/05 14:22:07;;;;;;;21.23;9.32;;;;;;;;;;5097122;28;20038;-79
2022/04/05 14:24:51;;;;;;;17.63;8.52;;;;;;;;;;5097040;28;20100;-79
2022/04/05 14:27:35;;;;;;;14.88;7.90;;;;;;;;;;5113288;28;20043;-79
2022/04/05 14:30:20;;;;;;;14.63;7.97;;;;;;;;;;5109175;28;20065;-79
2022/04/05 14:33:05;;;;;;;21.00;8.52;;;9.90;99.90;;;;;;5090753;28;20081;-79
2022/04/05 14:35:50;;;;;;;22.23;8.38;;;;;;;;;;5090468;28;20035;-80
2022/04/05 14:38:35;;;;;;;19.63;8.82;;;10.00;99.90;;;;;;5105786;28;20111;-80
2022/04/05 14:41:20;;;;;;;18.50;8.70;;;10.00;99.90;;;;;;5109714;28;20491;-79
2022/04/05 14:44:05;;;;;;;16.30;8.07;;;10.00;99.90;;;;;;5103318;28;20339;-79
2022/04/05 14:46:49;;;;;;;17.67;7.75;;;10.20;99.90;;;;;;5091039;28;20120;-79
2022/04/05 14:49:33;;;;;;;19.23;8.90;;;;;;;;;;5096840;28;20035;-79
2022/04/05 14:52:18;;;;;;;22.08;7.40;;;;;;;;;;5109001;28;20084;-79
2022/04/05 14:55:03;;;;;;;15.60;7.43;;;10.30;99.90;;;;;;5102867;28;20078;-79
2022/04/05 14:57:48;;;;;;;19.15;8.23;;;;;;;;;;5107645;28;20055;-80
2022/04/05 15:00:33;;;;;;;15.80;8.13;;;;;;;;;;5112395;28;20100;-78
2022/04/05 15:03:18;;;;;;;15.50;8.38;;;10.50;99.90;;;;;;5111806;28;20054;-79
2022/04/05 15:06:02;;;;;;;23.02;8.27;;;10.10;99.90;;;;;;5110675;28;20038;-79
2022/04/05 15:08:46;;;;;;;21.40;8.60;;;10.10;99.90;;;;;;5111168;28;20038;-78
2022/04/05 15:11:30;;;;;;;17.35;7.90;;;10.10;99.90;;;;;;5105141;28;20108;-79
2022/04/05 15:14:15;;;;;;;20.85;9.02;;;9.90;99.90;;;;;;5101099;28;20080;-78
2022/04/05 15:17:02;;;;;;;16.85;8.32;;;10.10;99.90;;;;;;5106558;28;20042;-80
2022/04/05 15:19:47;;;;;;;24.98;9.15;;;10.10;99.90;;;;;;5114425;28;20042;-78
2022/04/05 15:22:32;;;;;;;18.55;9.07;;;;;;;;;;5116643;28;20050;-79
2022/04/05 15:25:17;;;;;;;16.77;7.90;;;9.90;99.90;;;;;;5116630;28;20043;-78
2022/04/05 15:28:01;;;;;;;20.58;8.82;;;10.10;99.90;;;;;;5114907;28;20050;-79
2022/04/05 15:30:45;;;;;;;19.77;9.48;;;10.10;99.90;;;;;;5102849;28;20039;-81
2022/04/05 15:33:30;;;;;;;15.60;7.32;;;;;;;;;;5095088;28;20070;-80
2022/04/05 15:36:15;;;;;;;23.48;9.02;;;10.10;99.90;;;;;;5094168;28;20446;-81
2022/04/05 15:38:59;;;;;;;22.80;8.18;;;10.10;99.90;;;;;;5093981;28;20063;-79
2022/04/05 15:41:44;;;;;;;19.30;8.25;;;;;;;;;;5094645;28;20537;-80
2022/04/05 15:44:31;;;;;;;16.88;8.45;;;10.20;99.90;;;;;;5095806;28;20081;-80
2022/04/05 15:47:15;;;;;;;20.63;9.05;;;10.10;99.90;;;;;;5095192;28;20102;-80
2022/04/05 15:49:59;;;;;;;16.50;7.72;;;10.90;99.90;;;;;;5103195;28;20065;-80